sensor_id;sensor_type;location;lat;lon;timestamp;P1;durP1;ratioP1;P2;durP2;ratioP2
20525;SDS011;10421;49.142;9.232;2023-08-17T00:02:23;15.80;;;5.80;;
20525;SDS011;10421;49.142;9.232;2023-08-17T00:04:50;12.90;;;6.23;;
20525;SDS011;10421;49.142;9.232;2023-08-17T00:07:17;12.30;;;6.50;;
20525;SDS011;10421;49.142;9.232;2023-08-17T00:09:44;14.80;;;7.23;;
20525;SDS011;10421;49.142;9.232;2023-08-17T00:12:10;12.30;;;6.20;;
20525;SDS011;10421;49.142;9.232;2023-08-17T00:14:37;11.17;;;6.20;;
20525;SDS011;10421;49.142;9.232;2023-08-17T00:17:05;15.00;;;7.10;;
20525;SDS011;10421;49.142;9.232;2023-08-17T00:19:32;12.10;;;6.80;;
20525;SDS011;10421;49.142;9.232;2023-08-17T00:21:58;11.60;;;5.70;;
20525;SDS011;10421;49.142;9.232;2023-08-17T00:24:25;11.33;;;6.63;;
20525;SDS011;10421;49.142;9.232;2023-08-17T00:26:52;12.20;;;6.70;;
20525;SDS011;10421;49.142;9.232;2023-08-17T00:29:19;7.33;;;5.40;;
20525;SDS011;10421;49.142;9.232;2023-08-17T00:31:47;10.50;;;6.43;;
20525;SDS011;10421;49.142;9.232;2023-08-17T00:34:15;6.27;;;5.00;;
20525;SDS011;10421;49.142;9.232;2023-08-17T00:36:42;12.13;;;6.40;;
20525;SDS011;10421;49.142;9.232;2023-08-17T00:39:08;12.50;;;6.50;;
20525;SDS011;10421;49.142;9.232;2023-08-17T00:41:35;9.17;;;5.73;;
20525;SDS011;10421;49.142;9.232;2023-08-17T00:44:02;9.73;;;5.57;;
20525;SDS011;10421;49.142;9.232;2023-08-17T00:46:29;11.17;;;5.50;;
20525;SDS011;10421;49.142;9.232;2023-08-17T00:48:56;14.93;;;6.00;;
20525;SDS011;10421;49.142;9.232;2023-08-17T00:51:25;12.30;;;6.10;;
20525;SDS011;10421;49.142;9.232;2023-08-17T00:53:53;7.87;;;5.10;;
20525;SDS011;10421;49.142;9.232;2023-08-17T00:56:23;19.63;;;7.20;;
20525;SDS011;10421;49.142;9.232;2023-08-17T00:58:50;11.47;;;5.50;;
20525;SDS011;10421;49.142;9.232;2023-08-17T01:01:17;13.53;;;5.90;;
20525;SDS011;10421;49.142;9.232;2023-08-17T01:03:43;12.97;;;5.53;;
20525;SDS011;10421;49.142;9.232;2023-08-17T01:06:10;16.43;;;6.27;;
20525;SDS011;10421;49.142;9.232;2023-08-17T01:08:38;8.00;;;4.67;;
20525;SDS011;10421;49.142;9.232;2023-08-17T01:11:08;9.10;;;5.03;;
20525;SDS011;10421;49.142;9.232;2023-08-17T01:13:51;11.57;;;5.60;;
20525;SDS011;10421;49.142;9.232;2023-08-17T01:16:24;5.70;;;4.10;;
20525;SDS011;10421;49.142;9.232;2023-08-17T01:18:53;9.70;;;4.60;;
20525;SDS011;10421;49.142;9.232;2023-08-17T01:21:21;7.90;;;4.43;;
20525;SDS011;10421;49.142;9.232;2023-08-17T01:23:57;9.50;;;4.10;;
20525;SDS011;10421;49.142;9.232;2023-08-17T01:26:24;9.53;;;4.33;;
20525;SDS011;10421;49.142;9.232;2023-08-17T01:28:51;9.20;;;4.53;;
20525;SDS011;10421;49.142;9.232;2023-08-17T01:31:19;8.10;;;4.73;;
20525;SDS011;10421;49.142;9.232;2023-08-17T01:33:52;8.03;;;4.20;;
20525;SDS011;10421;49.142;9.232;2023-08-17T01:36:24;12.43;;;4.73;;
20525;SDS011;10421;49.142;9.232;2023-08-17T01:38:53;7.07;;;4.17;;
20525;SDS011;10421;49.142;9.232;2023-08-17T01:41:23;13.43;;;4.87;;
20525;SDS011;10421;49.142;9.232;2023-08-17T01:43:51;13.30;;;4.93;;
20525;SDS011;10421;49.142;9.232;2023-08-17T01:46:19;7.40;;;3.50;;
20525;SDS011;10421;49.142;9.232;2023-08-17T01:48:45;8.30;;;4.13;;
20525;SDS011;10421;49.142;9.232;2023-08-17T01:51:15;10.60;;;4.30;;
20525;SDS011;10421;49.142;9.232;2023-08-17T01:53:45;9.30;;;4.07;;
20525;SDS011;10421;49.142;9.232;2023-08-17T01:56:13;9.33;;;3.60;;
20525;SDS011;10421;49.142;9.232;2023-08-17T01:58:40;13.30;;;4.60;;
20525;SDS011;10421;49.142;9.232;2023-08-17T02:01:07;10.20;;;4.37;;
20525;SDS011;10421;49.142;9.232;2023-08-17T02:03:33;6.40;;;3.80;;
20525;SDS011;10421;49.142;9.232;2023-08-17T02:06:00;7.60;;;3.90;;
20525;SDS011;10421;49.142;9.232;2023-08-17T02:08:27;6.43;;;3.63;;
20525;SDS011;10421;49.142;9.232;2023-08-17T02:10:54;9.43;;;4.27;;
20525;SDS011;10421;49.142;9.232;2023-08-17T02:13:22;5.50;;;3.70;;
20525;SDS011;10421;49.142;9.232;2023-08-17T02:15:48;8.20;;;3.97;;
20525;SDS011;10421;49.142;9.232;2023-08-17T02:18:15;4.73;;;3.30;;
20525;SDS011;10421;49.142;9.232;2023-08-17T02:20:42;21.77;;;6.17;;
20525;SDS011;10421;49.142;9.232;2023-08-17T02:23:08;7.00;;;3.50;;
20525;SDS011;10421;49.142;9.232;2023-08-17T02:25:37;5.33;;;3.23;;
20525;SDS011;10421;49.142;9.232;2023-08-17T02:28:04;9.43;;;3.77;;
20525;SDS011;10421;49.142;9.232;2023-08-17T02:30:32;6.33;;;3.53;;
20525;SDS011;10421;49.142;9.232;2023-08-17T02:32:59;13.23;;;4.43;;
20525;SDS011;10421;49.142;9.232;2023-08-17T02:35:26;10.20;;;4.23;;
20525;SDS011;10421;49.142;9.232;2023-08-17T02:37:53;5.73;;;3.07;;
20525;SDS011;10421;49.142;9.232;2023-08-17T02:40:20;15.83;;;4.83;;
20525;SDS011;10421;49.142;9.232;2023-08-17T02:42:46;8.60;;;3.50;;
20525;SDS011;10421;49.142;9.232;2023-08-17T02:45:13;5.40;;;3.43;;
20525;SDS011;10421;49.142;9.232;2023-08-17T02:47:41;12.03;;;4.27;;
20525;SDS011;10421;49.142;9.232;2023-08-17T02:50:08;8.53;;;3.80;;
20525;SDS011;10421;49.142;9.232;2023-08-17T02:52:36;7.10;;;3.43;;
20525;SDS011;10421;49.142;9.232;2023-08-17T02:55:03;15.17;;;4.27;;
20525;SDS011;10421;49.142;9.232;2023-08-17T02:57:31;7.67;;;3.83;;
20525;SDS011;10421;49.142;9.232;2023-08-17T02:59:57;11.00;;;4.10;;
20525;SDS011;10421;49.142;9.232;2023-08-17T03:02:24;7.87;;;4.00;;
20525;SDS011;10421;49.142;9.232;2023-08-17T03:04:52;7.93;;;3.50;;
20525;SDS011;10421;49.142;9.232;2023-08-17T03:07:19;6.47;;;3.33;;
20525;SDS011;10421;49.142;9.232;2023-08-17T03:09:46;7.60;;;3.57;;
20525;SDS011;10421;49.142;9.232;2023-08-17T03:12:12;6.00;;;3.23;;
20525;SDS011;10421;49.142;9.232;2023-08-17T03:14:38;10.00;;;3.67;;
20525;SDS011;10421;49.142;9.232;2023-08-17T03:17:05;7.60;;;3.20;;
20525;SDS011;10421;49.142;9.232;2023-08-17T03:19:31;5.10;;;2.80;;
20525;SDS011;10421;49.142;9.232;2023-08-17T03:21:59;10.37;;;4.07;;
20525;SDS011;10421;49.142;9.232;2023-08-17T03:24:26;6.10;;;3.00;;
20525;SDS011;10421;49.142;9.232;2023-08-17T03:26:53;5.57;;;2.97;;
20525;SDS011;10421;49.142;9.232;2023-08-17T03:29:20;12.33;;;3.73;;
20525;SDS011;10421;49.142;9.232;2023-08-17T03:31:46;8.20;;;3.13;;
20525;SDS011;10421;49.142;9.232;2023-08-17T03:34:14;3.33;;;2.30;;
20525;SDS011;10421;49.142;9.232;2023-08-17T03:36:41;5.90;;;2.70;;
20525;SDS011;10421;49.142;9.232;2023-08-17T03:39:09;8.10;;;3.43;;
20525;SDS011;10421;49.142;9.232;2023-08-17T03:41:36;6.83;;;3.03;;
20525;SDS011;10421;49.142;9.232;2023-08-17T03:44:03;13.00;;;4.37;;
20525;SDS011;10421;49.142;9.232;2023-08-17T03:46:32;6.70;;;2.83;;
20525;SDS011;10421;49.142;9.232;2023-08-17T03:48:58;5.03;;;2.73;;
20525;SDS011;10421;49.142;9.232;2023-08-17T03:51:25;5.67;;;2.90;;
20525;SDS011;10421;49.142;9.232;2023-08-17T03:53:52;7.73;;;3.20;;
20525;SDS011;10421;49.142;9.232;2023-08-17T03:56:20;4.70;;;3.23;;
20525;SDS011;10421;49.142;9.232;2023-08-17T03:58:46;8.37;;;3.67;;
20525;SDS011;10421;49.142;9.232;2023-08-17T04:01:13;4.50;;;2.80;;
20525;SDS011;10421;49.142;9.232;2023-08-17T04:03:40;11.40;;;3.97;;
20525;SDS011;10421;49.142;9.232;2023-08-17T04:06:07;10.60;;;4.13;;
20525;SDS011;10421;49.142;9.232;2023-08-17T04:08:35;4.97;;;3.23;;
20525;SDS011;10421;49.142;9.232;2023-08-17T04:11:02;13.13;;;4.20;;
20525;SDS011;10421;49.142;9.232;2023-08-17T04:13:31;9.80;;;3.90;;
20525;SDS011;10421;49.142;9.232;2023-08-17T04:15:57;5.40;;;3.50;;
20525;SDS011;10421;49.142;9.232;2023-08-17T04:18:24;10.40;;;4.10;;
20525;SDS011;10421;49.142;9.232;2023-08-17T04:20:51;9.30;;;4.27;;
20525;SDS011;10421;49.142;9.232;2023-08-17T04:23:18;8.30;;;3.80;;
20525;SDS011;10421;49.142;9.232;2023-08-17T04:25:46;9.83;;;3.90;;
20525;SDS011;10421;49.142;9.232;2023-08-17T04:28:13;5.83;;;3.50;;
20525;SDS011;10421;49.142;9.232;2023-08-17T04:30:41;11.43;;;3.60;;
20525;SDS011;10421;49.142;9.232;2023-08-17T04:33:08;10.93;;;4.10;;
20525;SDS011;10421;49.142;9.232;2023-08-17T04:35:34;5.13;;;3.00;;
20525;SDS011;10421;49.142;9.232;2023-08-17T04:38:01;10.93;;;4.10;;
20525;SDS011;10421;49.142;9.232;2023-08-17T04:40:28;9.30;;;3.70;;
20525;SDS011;10421;49.142;9.232;2023-08-17T04:42:55;9.53;;;3.47;;
20525;SDS011;10421;49.142;9.232;2023-08-17T04:45:21;4.67;;;2.80;;
20525;SDS011;10421;49.142;9.232;2023-08-17T04:47:49;5.90;;;2.60;;
20525;SDS011;10421;49.142;9.232;2023-08-17T04:50:16;6.57;;;3.10;;
20525;SDS011;10421;49.142;9.232;2023-08-17T04:52:43;18.53;;;4.27;;
20525;SDS011;10421;49.142;9.232;2023-08-17T04:55:10;11.23;;;4.00;;
20525;SDS011;10421;49.142;9.232;2023-08-17T04:57:37;5.57;;;3.07;;
20525;SDS011;10421;49.142;9.232;2023-08-17T05:00:04;11.73;;;3.90;;
20525;SDS011;10421;49.142;9.232;2023-08-17T05:02:34;7.70;;;3.23;;
20525;SDS011;10421;49.142;9.232;2023-08-17T05:05:03;6.10;;;3.33;;
20525;SDS011;10421;49.142;9.232;2023-08-17T05:07:31;13.03;;;4.00;;
20525;SDS011;10421;49.142;9.232;2023-08-17T05:09:58;12.60;;;3.63;;
20525;SDS011;10421;49.142;9.232;2023-08-17T05:12:25;12.67;;;3.40;;
20525;SDS011;10421;49.142;9.232;2023-08-17T05:14:52;24.00;;;5.37;;
20525;SDS011;10421;49.142;9.232;2023-08-17T05:17:19;4.50;;;2.33;;
20525;SDS011;10421;49.142;9.232;2023-08-17T05:19:46;7.90;;;3.00;;
20525;SDS011;10421;49.142;9.232;2023-08-17T05:22:14;6.30;;;2.63;;
20525;SDS011;10421;49.142;9.232;2023-08-17T05:24:40;5.10;;;2.30;;
20525;SDS011;10421;49.142;9.232;2023-08-17T05:27:07;6.80;;;2.67;;
20525;SDS011;10421;49.142;9.232;2023-08-17T05:29:34;2.50;;;2.10;;
20525;SDS011;10421;49.142;9.232;2023-08-17T05:32:01;15.33;;;3.90;;
20525;SDS011;10421;49.142;9.232;2023-08-17T05:34:28;9.20;;;3.23;;
20525;SDS011;10421;49.142;9.232;2023-08-17T05:36:55;4.47;;;2.57;;
20525;SDS011;10421;49.142;9.232;2023-08-17T05:39:23;12.63;;;3.60;;
20525;SDS011;10421;49.142;9.232;2023-08-17T05:41:49;6.80;;;2.77;;
20525;SDS011;10421;49.142;9.232;2023-08-17T05:44:17;8.67;;;3.37;;
20525;SDS011;10421;49.142;9.232;2023-08-17T05:46:43;11.40;;;4.73;;
20525;SDS011;10421;49.142;9.232;2023-08-17T05:49:10;22.03;;;12.27;;
20525;SDS011;10421;49.142;9.232;2023-08-17T05:51:37;33.90;;;16.47;;
20525;SDS011;10421;49.142;9.232;2023-08-17T05:54:04;18.93;;;8.90;;
20525;SDS011;10421;49.142;9.232;2023-08-17T05:56:32;15.00;;;7.90;;
20525;SDS011;10421;49.142;9.232;2023-08-17T05:58:59;7.90;;;4.50;;
20525;SDS011;10421;49.142;9.232;2023-08-17T06:01:26;16.67;;;9.77;;
20525;SDS011;10421;49.142;9.232;2023-08-17T06:03:52;27.13;;;15.37;;
20525;SDS011;10421;49.142;9.232;2023-08-17T06:06:19;20.83;;;12.77;;
20525;SDS011;10421;49.142;9.232;2023-08-17T06:08:46;23.73;;;14.50;;
20525;SDS011;10421;49.142;9.232;2023-08-17T06:11:13;16.50;;;8.50;;
20525;SDS011;10421;49.142;9.232;2023-08-17T06:13:41;14.50;;;7.40;;
20525;SDS011;10421;49.142;9.232;2023-08-17T06:16:08;18.27;;;8.70;;
20525;SDS011;10421;49.142;9.232;2023-08-17T06:18:35;25.50;;;13.50;;
20525;SDS011;10421;49.142;9.232;2023-08-17T06:21:03;18.63;;;9.60;;
20525;SDS011;10421;49.142;9.232;2023-08-17T06:23:29;16.60;;;8.13;;
20525;SDS011;10421;49.142;9.232;2023-08-17T06:25:56;12.50;;;6.50;;
20525;SDS011;10421;49.142;9.232;2023-08-17T06:28:24;13.50;;;5.90;;
20525;SDS011;10421;49.142;9.232;2023-08-17T06:30:52;11.50;;;5.00;;
20525;SDS011;10421;49.142;9.232;2023-08-17T06:33:20;10.57;;;6.47;;
20525;SDS011;10421;49.142;9.232;2023-08-17T06:35:47;17.17;;;8.83;;
20525;SDS011;10421;49.142;9.232;2023-08-17T06:38:14;13.53;;;8.00;;
20525;SDS011;10421;49.142;9.232;2023-08-17T06:40:41;13.37;;;6.57;;
20525;SDS011;10421;49.142;9.232;2023-08-17T06:43:07;12.00;;;6.47;;
20525;SDS011;10421;49.142;9.232;2023-08-17T06:45:34;9.37;;;6.00;;
20525;SDS011;10421;49.142;9.232;2023-08-17T06:48:03;19.73;;;7.87;;
20525;SDS011;10421;49.142;9.232;2023-08-17T06:50:30;11.17;;;5.80;;
20525;SDS011;10421;49.142;9.232;2023-08-17T06:52:56;11.10;;;5.80;;
20525;SDS011;10421;49.142;9.232;2023-08-17T06:55:23;9.47;;;5.20;;
20525;SDS011;10421;49.142;9.232;2023-08-17T06:57:50;10.73;;;5.40;;
20525;SDS011;10421;49.142;9.232;2023-08-17T07:00:17;6.47;;;4.70;;
20525;SDS011;10421;49.142;9.232;2023-08-17T07:02:45;12.40;;;5.63;;
20525;SDS011;10421;49.142;9.232;2023-08-17T07:05:13;16.00;;;7.73;;
20525;SDS011;10421;49.142;9.232;2023-08-17T07:07:40;12.07;;;5.63;;
20525;SDS011;10421;49.142;9.232;2023-08-17T07:10:08;14.93;;;5.73;;
20525;SDS011;10421;49.142;9.232;2023-08-17T07:12:35;20.17;;;6.70;;
20525;SDS011;10421;49.142;9.232;2023-08-17T07:15:02;12.10;;;5.00;;
20525;SDS011;10421;49.142;9.232;2023-08-17T07:17:29;14.37;;;7.53;;
20525;SDS011;10421;49.142;9.232;2023-08-17T07:19:56;20.90;;;10.30;;
20525;SDS011;10421;49.142;9.232;2023-08-17T07:22:24;17.67;;;8.63;;
20525;SDS011;10421;49.142;9.232;2023-08-17T07:24:50;16.37;;;7.90;;
20525;SDS011;10421;49.142;9.232;2023-08-17T07:27:17;11.17;;;6.60;;
20525;SDS011;10421;49.142;9.232;2023-08-17T07:29:44;14.40;;;7.00;;
20525;SDS011;10421;49.142;9.232;2023-08-17T07:32:11;13.60;;;6.13;;
20525;SDS011;10421;49.142;9.232;2023-08-17T07:34:37;8.83;;;5.57;;
20525;SDS011;10421;49.142;9.232;2023-08-17T07:37:04;16.67;;;7.43;;
20525;SDS011;10421;49.142;9.232;2023-08-17T07:39:32;10.90;;;5.80;;
20525;SDS011;10421;49.142;9.232;2023-08-17T07:41:59;20.87;;;7.40;;
20525;SDS011;10421;49.142;9.232;2023-08-17T07:44:26;9.00;;;5.50;;
20525;SDS011;10421;49.142;9.232;2023-08-17T07:46:53;12.30;;;7.70;;
20525;SDS011;10421;49.142;9.232;2023-08-17T07:49:20;14.47;;;6.60;;
20525;SDS011;10421;49.142;9.232;2023-08-17T07:51:48;11.20;;;6.53;;
20525;SDS011;10421;49.142;9.232;2023-08-17T07:54:15;15.40;;;6.77;;
20525;SDS011;10421;49.142;9.232;2023-08-17T07:56:43;10.33;;;6.07;;
20525;SDS011;10421;49.142;9.232;2023-08-17T07:59:09;14.93;;;7.03;;
20525;SDS011;10421;49.142;9.232;2023-08-17T08:01:36;10.90;;;5.97;;
20525;SDS011;10421;49.142;9.232;2023-08-17T08:04:05;10.77;;;5.90;;
20525;SDS011;10421;49.142;9.232;2023-08-17T08:06:32;18.47;;;6.93;;
20525;SDS011;10421;49.142;9.232;2023-08-17T08:08:58;11.93;;;6.03;;
20525;SDS011;10421;49.142;9.232;2023-08-17T08:11:25;11.13;;;5.90;;
20525;SDS011;10421;49.142;9.232;2023-08-17T08:13:56;21.63;;;7.97;;
20525;SDS011;10421;49.142;9.232;2023-08-17T08:16:23;16.53;;;7.70;;
20525;SDS011;10421;49.142;9.232;2023-08-17T08:18:49;12.13;;;6.83;;
20525;SDS011;10421;49.142;9.232;2023-08-17T08:21:16;11.93;;;7.23;;
20525;SDS011;10421;49.142;9.232;2023-08-17T08:23:43;11.53;;;6.27;;
20525;SDS011;10421;49.142;9.232;2023-08-17T08:26:10;14.33;;;7.90;;
20525;SDS011;10421;49.142;9.232;2023-08-17T08:28:36;11.90;;;6.53;;
20525;SDS011;10421;49.142;9.232;2023-08-17T08:31:04;15.20;;;6.93;;
20525;SDS011;10421;49.142;9.232;2023-08-17T08:33:31;17.20;;;7.73;;
20525;SDS011;10421;49.142;9.232;2023-08-17T08:35:58;14.73;;;7.30;;
20525;SDS011;10421;49.142;9.232;2023-08-17T08:38:25;12.30;;;6.60;;
20525;SDS011;10421;49.142;9.232;2023-08-17T08:40:51;14.70;;;7.20;;
20525;SDS011;10421;49.142;9.232;2023-08-17T08:43:18;15.33;;;7.07;;
20525;SDS011;10421;49.142;9.232;2023-08-17T08:45:45;9.40;;;6.10;;
20525;SDS011;10421;49.142;9.232;2023-08-17T08:48:15;14.80;;;7.93;;
20525;SDS011;10421;49.142;9.232;2023-08-17T08:50:45;11.03;;;6.70;;
20525;SDS011;10421;49.142;9.232;2023-08-17T08:53:13;10.33;;;6.27;;
20525;SDS011;10421;49.142;9.232;2023-08-17T08:55:41;9.93;;;6.40;;
20525;SDS011;10421;49.142;9.232;2023-08-17T08:58:15;16.63;;;8.03;;
20525;SDS011;10421;49.142;9.232;2023-08-17T09:00:42;17.30;;;8.83;;
20525;SDS011;10421;49.142;9.232;2023-08-17T09:03:12;11.57;;;7.33;;
20525;SDS011;10421;49.142;9.232;2023-08-17T09:05:43;14.83;;;8.33;;
20525;SDS011;10421;49.142;9.232;2023-08-17T09:08:13;14.33;;;8.23;;
20525;SDS011;10421;49.142;9.232;2023-08-17T09:10:41;14.40;;;9.30;;
20525;SDS011;10421;49.142;9.232;2023-08-17T09:13:08;11.50;;;7.80;;
20525;SDS011;10421;49.142;9.232;2023-08-17T09:15:36;11.80;;;6.83;;
20525;SDS011;10421;49.142;9.232;2023-08-17T09:18:03;14.67;;;7.57;;
20525;SDS011;10421;49.142;9.232;2023-08-17T09:20:37;9.60;;;6.87;;
20525;SDS011;10421;49.142;9.232;2023-08-17T09:23:06;11.97;;;7.60;;
20525;SDS011;10421;49.142;9.232;2023-08-17T09:25:37;11.57;;;7.70;;
20525;SDS011;10421;49.142;9.232;2023-08-17T09:28:08;9.20;;;6.97;;
20525;SDS011;10421;49.142;9.232;2023-08-17T09:30:48;12.90;;;8.60;;
20525;SDS011;10421;49.142;9.232;2023-08-17T09:33:16;16.33;;;7.23;;
20525;SDS011;10421;49.142;9.232;2023-08-17T09:35:44;12.10;;;7.10;;
20525;SDS011;10421;49.142;9.232;2023-08-17T09:38:11;20.77;;;8.47;;
20525;SDS011;10421;49.142;9.232;2023-08-17T09:40:38;13.30;;;7.33;;
20525;SDS011;10421;49.142;9.232;2023-08-17T09:43:05;15.63;;;8.50;;
20525;SDS011;10421;49.142;9.232;2023-08-17T09:45:32;11.40;;;8.13;;
20525;SDS011;10421;49.142;9.232;2023-08-17T09:47:59;12.63;;;8.30;;
20525;SDS011;10421;49.142;9.232;2023-08-17T09:50:25;15.07;;;7.80;;
20525;SDS011;10421;49.142;9.232;2023-08-17T09:52:54;13.03;;;7.90;;
20525;SDS011;10421;49.142;9.232;2023-08-17T09:55:21;16.47;;;8.50;;
20525;SDS011;10421;49.142;9.232;2023-08-17T09:57:48;15.43;;;8.43;;
20525;SDS011;10421;49.142;9.232;2023-08-17T10:00:16;16.03;;;7.90;;
20525;SDS011;10421;49.142;9.232;2023-08-17T10:02:44;15.70;;;8.23;;
20525;SDS011;10421;49.142;9.232;2023-08-17T10:05:11;13.50;;;7.77;;
20525;SDS011;10421;49.142;9.232;2023-08-17T10:07:41;10.50;;;7.20;;
20525;SDS011;10421;49.142;9.232;2023-08-17T10:10:11;13.77;;;7.40;;
20525;SDS011;10421;49.142;9.232;2023-08-17T10:12:45;14.57;;;8.03;;
20525;SDS011;10421;49.142;9.232;2023-08-17T10:15:18;12.23;;;7.00;;
20525;SDS011;10421;49.142;9.232;2023-08-17T10:17:49;14.17;;;7.57;;
20525;SDS011;10421;49.142;9.232;2023-08-17T10:20:21;17.60;;;7.93;;
20525;SDS011;10421;49.142;9.232;2023-08-17T10:22:51;12.53;;;7.50;;
20525;SDS011;10421;49.142;9.232;2023-08-17T10:25:25;16.93;;;8.50;;
20525;SDS011;10421;49.142;9.232;2023-08-17T10:27:53;12.30;;;7.60;;
20525;SDS011;10421;49.142;9.232;2023-08-17T10:30:20;16.20;;;7.80;;
20525;SDS011;10421;49.142;9.232;2023-08-17T10:32:47;10.03;;;7.10;;
20525;SDS011;10421;49.142;9.232;2023-08-17T10:35:14;12.57;;;7.17;;
20525;SDS011;10421;49.142;9.232;2023-08-17T10:37:41;14.07;;;7.37;;
20525;SDS011;10421;49.142;9.232;2023-08-17T10:40:09;11.43;;;7.00;;
20525;SDS011;10421;49.142;9.232;2023-08-17T10:42:37;15.23;;;8.60;;
20525;SDS011;10421;49.142;9.232;2023-08-17T10:51:03;19.30;;;9.53;;
20525;SDS011;10421;49.142;9.232;2023-08-17T10:53:33;12.17;;;8.60;;
20525;SDS011;10421;49.142;9.232;2023-08-17T10:56:04;18.00;;;10.50;;
20525;SDS011;10421;49.142;9.232;2023-08-17T10:58:35;16.13;;;9.20;;
20525;SDS011;10421;49.142;9.232;2023-08-17T11:01:02;17.83;;;9.40;;
20525;SDS011;10421;49.142;9.232;2023-08-17T11:03:29;12.27;;;8.30;;
20525;SDS011;10421;49.142;9.232;2023-08-17T11:05:56;19.80;;;10.23;;
20525;SDS011;10421;49.142;9.232;2023-08-17T11:08:27;15.77;;;9.33;;
20525;SDS011;10421;49.142;9.232;2023-08-17T11:10:58;18.03;;;9.87;;
20525;SDS011;10421;49.142;9.232;2023-08-17T11:13:27;14.67;;;9.20;;
20525;SDS011;10421;49.142;9.232;2023-08-17T11:15:57;12.73;;;7.63;;
20525;SDS011;10421;49.142;9.232;2023-08-17T11:18:25;11.90;;;8.03;;
20525;SDS011;10421;49.142;9.232;2023-08-17T11:20:52;17.63;;;10.03;;
20525;SDS011;10421;49.142;9.232;2023-08-17T11:23:19;17.17;;;8.30;;
20525;SDS011;10421;49.142;9.232;2023-08-17T11:25:46;8.70;;;6.47;;
20525;SDS011;10421;49.142;9.232;2023-08-17T11:28:13;11.40;;;7.80;;
20525;SDS011;10421;49.142;9.232;2023-08-17T11:30:41;10.30;;;7.30;;
20525;SDS011;10421;49.142;9.232;2023-08-17T11:33:09;9.00;;;7.20;;
20525;SDS011;10421;49.142;9.232;2023-08-17T11:35:36;12.50;;;7.60;;
20525;SDS011;10421;49.142;9.232;2023-08-17T11:38:04;12.83;;;7.87;;
20525;SDS011;10421;49.142;9.232;2023-08-17T11:40:31;16.80;;;8.60;;
20525;SDS011;10421;49.142;9.232;2023-08-17T11:42:58;12.57;;;8.00;;
20525;SDS011;10421;49.142;9.232;2023-08-17T11:45:25;13.53;;;8.40;;
20525;SDS011;10421;49.142;9.232;2023-08-17T11:47:52;10.57;;;7.17;;
20525;SDS011;10421;49.142;9.232;2023-08-17T11:50:20;9.93;;;7.90;;
20525;SDS011;10421;49.142;9.232;2023-08-17T11:52:47;10.50;;;7.23;;
20525;SDS011;10421;49.142;9.232;2023-08-17T11:55:15;9.53;;;6.90;;
20525;SDS011;10421;49.142;9.232;2023-08-17T11:57:44;11.97;;;7.40;;
20525;SDS011;10421;49.142;9.232;2023-08-17T12:00:16;9.33;;;7.40;;
20525;SDS011;10421;49.142;9.232;2023-08-17T12:02:46;11.83;;;8.33;;
20525;SDS011;10421;49.142;9.232;2023-08-17T12:05:13;12.63;;;8.30;;
20525;SDS011;10421;49.142;9.232;2023-08-17T12:07:47;11.13;;;7.47;;
20525;SDS011;10421;49.142;9.232;2023-08-17T12:10:13;9.73;;;7.20;;
20525;SDS011;10421;49.142;9.232;2023-08-17T12:12:41;10.87;;;7.60;;
20525;SDS011;10421;49.142;9.232;2023-08-17T12:15:09;9.57;;;7.10;;
20525;SDS011;10421;49.142;9.232;2023-08-17T12:17:37;10.63;;;7.40;;
20525;SDS011;10421;49.142;9.232;2023-08-17T12:20:14;11.40;;;8.20;;
20525;SDS011;10421;49.142;9.232;2023-08-17T12:22:42;14.83;;;7.70;;
20525;SDS011;10421;49.142;9.232;2023-08-17T12:25:10;13.17;;;7.93;;
20525;SDS011;10421;49.142;9.232;2023-08-17T12:27:37;14.37;;;7.70;;
20525;SDS011;10421;49.142;9.232;2023-08-17T12:30:04;14.30;;;8.00;;
20525;SDS011;10421;49.142;9.232;2023-08-17T12:32:37;12.50;;;6.90;;
20525;SDS011;10421;49.142;9.232;2023-08-17T12:35:04;10.87;;;7.37;;
20525;SDS011;10421;49.142;9.232;2023-08-17T12:37:31;17.00;;;8.57;;
20525;SDS011;10421;49.142;9.232;2023-08-17T12:39:58;11.13;;;7.23;;
20525;SDS011;10421;49.142;9.232;2023-08-17T12:42:26;8.77;;;6.93;;
20525;SDS011;10421;49.142;9.232;2023-08-17T12:44:52;11.53;;;7.70;;
20525;SDS011;10421;49.142;9.232;2023-08-17T12:47:19;12.83;;;7.60;;
20525;SDS011;10421;49.142;9.232;2023-08-17T12:49:46;13.17;;;7.80;;
20525;SDS011;10421;49.142;9.232;2023-08-17T12:52:13;9.83;;;7.03;;
20525;SDS011;10421;49.142;9.232;2023-08-17T12:54:39;11.87;;;7.37;;
20525;SDS011;10421;49.142;9.232;2023-08-17T12:57:06;15.47;;;7.33;;
20525;SDS011;10421;49.142;9.232;2023-08-17T12:59:34;10.10;;;6.20;;
20525;SDS011;10421;49.142;9.232;2023-08-17T13:02:01;13.50;;;7.13;;
20525;SDS011;10421;49.142;9.232;2023-08-17T13:04:27;7.03;;;5.90;;
20525;SDS011;10421;49.142;9.232;2023-08-17T13:06:54;11.63;;;6.40;;
20525;SDS011;10421;49.142;9.232;2023-08-17T13:09:21;12.13;;;7.00;;
20525;SDS011;10421;49.142;9.232;2023-08-17T13:11:48;9.50;;;5.63;;
20525;SDS011;10421;49.142;9.232;2023-08-17T13:14:14;15.60;;;7.43;;
20525;SDS011;10421;49.142;9.232;2023-08-17T13:16:43;10.90;;;6.37;;
20525;SDS011;10421;49.142;9.232;2023-08-17T13:19:09;12.00;;;6.10;;
20525;SDS011;10421;49.142;9.232;2023-08-17T13:21:36;13.03;;;7.00;;
20525;SDS011;10421;49.142;9.232;2023-08-17T13:24:03;10.47;;;6.50;;
20525;SDS011;10421;49.142;9.232;2023-08-17T13:26:30;12.20;;;6.30;;
20525;SDS011;10421;49.142;9.232;2023-08-17T13:28:58;19.40;;;8.37;;
20525;SDS011;10421;49.142;9.232;2023-08-17T13:31:24;9.53;;;6.10;;
20525;SDS011;10421;49.142;9.232;2023-08-17T13:33:52;12.60;;;6.63;;
20525;SDS011;10421;49.142;9.232;2023-08-17T13:36:19;10.47;;;6.20;;
20525;SDS011;10421;49.142;9.232;2023-08-17T13:38:46;7.87;;;5.90;;
20525;SDS011;10421;49.142;9.232;2023-08-17T13:41:12;8.00;;;5.40;;
20525;SDS011;10421;49.142;9.232;2023-08-17T13:43:39;8.60;;;5.87;;
20525;SDS011;10421;49.142;9.232;2023-08-17T13:46:06;11.87;;;6.30;;
20525;SDS011;10421;49.142;9.232;2023-08-17T13:48:33;9.23;;;6.10;;
20525;SDS011;10421;49.142;9.232;2023-08-17T13:51:01;13.83;;;6.00;;
20525;SDS011;10421;49.142;9.232;2023-08-17T13:53:28;10.03;;;5.70;;
20525;SDS011;10421;49.142;9.232;2023-08-17T13:55:55;12.67;;;6.43;;
20525;SDS011;10421;49.142;9.232;2023-08-17T13:58:21;11.13;;;6.27;;
20525;SDS011;10421;49.142;9.232;2023-08-17T14:00:48;18.60;;;6.77;;
20525;SDS011;10421;49.142;9.232;2023-08-17T14:03:15;14.10;;;6.60;;
20525;SDS011;10421;49.142;9.232;2023-08-17T14:05:41;7.00;;;5.13;;
20525;SDS011;10421;49.142;9.232;2023-08-17T14:08:10;9.40;;;6.13;;
20525;SDS011;10421;49.142;9.232;2023-08-17T14:10:37;9.00;;;5.83;;
20525;SDS011;10421;49.142;9.232;2023-08-17T14:13:04;10.20;;;6.17;;
20525;SDS011;10421;49.142;9.232;2023-08-17T14:15:31;7.67;;;5.90;;
20525;SDS011;10421;49.142;9.232;2023-08-17T14:17:57;12.57;;;6.90;;
20525;SDS011;10421;49.142;9.232;2023-08-17T14:20:24;10.37;;;6.23;;
20525;SDS011;10421;49.142;9.232;2023-08-17T14:22:51;13.33;;;6.80;;
20525;SDS011;10421;49.142;9.232;2023-08-17T14:25:19;16.13;;;7.57;;
20525;SDS011;10421;49.142;9.232;2023-08-17T14:27:46;10.53;;;6.53;;
20525;SDS011;10421;49.142;9.232;2023-08-17T14:30:13;8.83;;;5.77;;
20525;SDS011;10421;49.142;9.232;2023-08-17T14:32:40;12.13;;;6.47;;
20525;SDS011;10421;49.142;9.232;2023-08-17T14:35:07;10.07;;;6.00;;
20525;SDS011;10421;49.142;9.232;2023-08-17T14:37:34;7.33;;;5.97;;
20525;SDS011;10421;49.142;9.232;2023-08-17T14:40:00;16.53;;;7.30;;
20525;SDS011;10421;49.142;9.232;2023-08-17T14:42:29;7.70;;;5.87;;
20525;SDS011;10421;49.142;9.232;2023-08-17T14:44:55;13.23;;;7.17;;
20525;SDS011;10421;49.142;9.232;2023-08-17T14:47:22;13.80;;;6.60;;